sensor_id;sensor_type;location;lat;lon;timestamp;pressure;altitude;pressure_sealevel;temperature;humidity
84169;BME280;74295;50.146;8.794;2023-12-20T00:00:49;100720.56;;;5.34;92.56
84169;BME280;74295;50.146;8.794;2023-12-20T00:10:52;100718.28;;;5.38;92.58
84169;BME280;74295;50.146;8.794;2023-12-20T00:20:56;100704.44;;;5.34;92.70
84169;BME280;74295;50.146;8.794;2023-12-20T00:30:58;100697.22;;;5.41;92.01
84169;BME280;74295;50.146;8.794;2023-12-20T00:41:03;100684.19;;;5.38;91.95
84169;BME280;74295;50.146;8.794;2023-12-20T00:51:06;100687.47;;;5.33;92.46
84169;BME280;74295;50.146;8.794;2023-12-20T01:01:10;100689.53;;;5.31;92.80
84169;BME280;74295;50.146;8.794;2023-12-20T01:11:12;100665.56;;;5.37;92.29
84169;BME280;74295;50.146;8.794;2023-12-20T01:21:16;100665.34;;;5.38;92.84
84169;BME280;74295;50.146;8.794;2023-12-20T01:31:19;100669.28;;;5.36;92.64
84169;BME280;74295;50.146;8.794;2023-12-20T01:41:23;100668.03;;;5.31;93.06
84169;BME280;74295;50.146;8.794;2023-12-20T01:51:26;100668.06;;;5.38;92.36
84169;BME280;74295;50.146;8.794;2023-12-20T02:01:31;100680.03;;;5.36;91.97
84169;BME280;74295;50.146;8.794;2023-12-20T02:11:34;100695.75;;;5.32;92.33
84169;BME280;74295;50.146;8.794;2023-12-20T02:21:39;100653.16;;;5.42;92.13
84169;BME280;74295;50.146;8.794;2023-12-20T02:31:42;100659.97;;;5.31;92.70
84169;BME280;74295;50.146;8.794;2023-12-20T02:41:49;100659.16;;;5.31;93.16
84169;BME280;74295;50.146;8.794;2023-12-20T02:51:52;100660.78;;;5.25;92.66
84169;BME280;74295;50.146;8.794;2023-12-20T03:01:56;100666.16;;;5.32;92.82
84169;BME280;74295;50.146;8.794;2023-12-20T03:11:58;100682.72;;;5.42;92.46
84169;BME280;74295;50.146;8.794;2023-12-20T03:22:03;100661.22;;;5.36;92.70
84169;BME280;74295;50.146;8.794;2023-12-20T03:32:06;100671.56;;;5.32;91.94
84169;BME280;74295;50.146;8.794;2023-12-20T03:42:11;100681.06;;;5.34;92.57
84169;BME280;74295;50.146;8.794;2023-12-20T03:52:14;100694.94;;;5.45;92.97
84169;BME280;74295;50.146;8.794;2023-12-20T04:02:18;100702.59;;;5.41;93.35
84169;BME280;74295;50.146;8.794;2023-12-20T04:12:21;100711.69;;;5.40;93.19
84169;BME280;74295;50.146;8.794;2023-12-20T04:22:25;100706.94;;;5.42;93.33
84169;BME280;74295;50.146;8.794;2023-12-20T04:32:27;100715.00;;;5.36;93.49
84169;BME280;74295;50.146;8.794;2023-12-20T04:42:31;100721.56;;;5.20;93.45
84169;BME280;74295;50.146;8.794;2023-12-20T04:52:34;100735.59;;;5.15;93.58
84169;BME280;74295;50.146;8.794;2023-12-20T05:02:38;100741.19;;;5.20;93.61
84169;BME280;74295;50.146;8.794;2023-12-20T05:12:41;100732.41;;;4.99;93.44
84169;BME280;74295;50.146;8.794;2023-12-20T05:22:45;100769.81;;;4.94;94.18
84169;BME280;74295;50.146;8.794;2023-12-20T05:32:48;100780.84;;;4.71;94.09
84169;BME280;74295;50.146;8.794;2023-12-20T05:42:52;100800.78;;;4.56;94.83
84169;BME280;74295;50.146;8.794;2023-12-20T05:52:55;100785.25;;;4.51;94.48
84169;BME280;74295;50.146;8.794;2023-12-20T06:03:00;100785.19;;;4.45;94.73
84169;BME280;74295;50.146;8.794;2023-12-20T06:13:03;100793.63;;;4.42;94.66
84169;BME280;74295;50.146;8.794;2023-12-20T06:23:07;100818.72;;;4.28;94.57
84169;BME280;74295;50.146;8.794;2023-12-20T06:33:10;100804.88;;;4.24;93.97
84169;BME280;74295;50.146;8.794;2023-12-20T06:43:14;100798.94;;;4.08;93.18
84169;BME280;74295;50.146;8.794;2023-12-20T06:53:37;100808.28;;;4.12;92.06
84169;BME280;74295;50.146;8.794;2023-12-20T07:03:41;100826.16;;;4.26;91.74
84169;BME280;74295;50.146;8.794;2023-12-20T07:13:46;100832.06;;;4.70;89.92
84169;BME280;74295;50.146;8.794;2023-12-20T07:23:50;100836.09;;;4.87;89.66
84169;BME280;74295;50.146;8.794;2023-12-20T07:33:53;100838.91;;;4.79;90.31
84169;BME280;74295;50.146;8.794;2023-12-20T07:43:57;100835.94;;;4.67;89.67
84169;BME280;74295;50.146;8.794;2023-12-20T07:54:00;100852.34;;;4.79;89.02
84169;BME280;74295;50.146;8.794;2023-12-20T08:04:04;100871.69;;;4.95;88.11
84169;BME280;74295;50.146;8.794;2023-12-20T08:14:07;100869.31;;;5.13;86.99
84169;BME280;74295;50.146;8.794;2023-12-20T08:24:11;100866.22;;;5.16;86.89
84169;BME280;74295;50.146;8.794;2023-12-20T08:34:14;100874.31;;;5.16;86.57
84169;BME280;74295;50.146;8.794;2023-12-20T08:44:18;100889.56;;;5.09;86.05
84169;BME280;74295;50.146;8.794;2023-12-20T08:54:21;100884.53;;;5.34;86.00
84169;BME280;74295;50.146;8.794;2023-12-20T09:04:25;100867.38;;;5.35;86.33
84169;BME280;74295;50.146;8.794;2023-12-20T09:14:28;100876.16;;;5.63;85.97
84169;BME280;74295;50.146;8.794;2023-12-20T09:24:32;100886.03;;;5.90;85.09
84169;BME280;74295;50.146;8.794;2023-12-20T09:34:35;100873.03;;;6.07;84.25
84169;BME280;74295;50.146;8.794;2023-12-20T09:44:40;100890.25;;;6.32;82.33
84169;BME280;74295;50.146;8.794;2023-12-20T09:54:49;100909.34;;;6.43;83.25
84169;BME280;74295;50.146;8.794;2023-12-20T10:04:56;100905.00;;;6.55;82.98
84169;BME280;74295;50.146;8.794;2023-12-20T10:14:59;100884.47;;;6.54;81.77
84169;BME280;74295;50.146;8.794;2023-12-20T10:25:03;100870.41;;;6.59;81.94
84169;BME280;74295;50.146;8.794;2023-12-20T10:35:06;100849.47;;;6.87;81.51
84169;BME280;74295;50.146;8.794;2023-12-20T10:45:11;100825.38;;;6.98;81.46
84169;BME280;74295;50.146;8.794;2023-12-20T10:55:13;100819.59;;;6.88;80.94
84169;BME280;74295;50.146;8.794;2023-12-20T11:05:26;100814.81;;;6.90;79.63
84169;BME280;74295;50.146;8.794;2023-12-20T11:15:31;100796.84;;;7.35;78.47
84169;BME280;74295;50.146;8.794;2023-12-20T11:25:47;100798.63;;;7.92;76.32
84169;BME280;74295;50.146;8.794;2023-12-20T11:35:50;100799.84;;;8.51;75.09
84169;BME280;74295;50.146;8.794;2023-12-20T11:45:55;100779.31;;;8.44;74.98
84169;BME280;74295;50.146;8.794;2023-12-20T11:55:57;100782.59;;;8.21;74.39
84169;BME280;74295;50.146;8.794;2023-12-20T12:06:01;100772.63;;;7.97;73.52
84169;BME280;74295;50.146;8.794;2023-12-20T12:16:06;100764.31;;;7.99;72.40
84169;BME280;74295;50.146;8.794;2023-12-20T12:26:10;100752.13;;;8.14;70.81
84169;BME280;74295;50.146;8.794;2023-12-20T12:36:13;100750.97;;;8.35;69.52
84169;BME280;74295;50.146;8.794;2023-12-20T12:46:20;100748.69;;;8.32;69.86
84169;BME280;74295;50.146;8.794;2023-12-20T12:56:23;100708.78;;;8.09;69.92
84169;BME280;74295;50.146;8.794;2023-12-20T13:06:26;100700.69;;;8.09;70.30
84169;BME280;74295;50.146;8.794;2023-12-20T13:16:29;100694.81;;;8.37;69.10
84169;BME280;74295;50.146;8.794;2023-12-20T13:26:34;100668.13;;;8.29;69.30
84169;BME280;74295;50.146;8.794;2023-12-20T13:36:36;100648.19;;;8.05;70.17
84169;BME280;74295;50.146;8.794;2023-12-20T13:46:41;100646.84;;;7.89;72.36
84169;BME280;74295;50.146;8.794;2023-12-20T13:56:44;100660.00;;;7.79;71.96
84169;BME280;74295;50.146;8.794;2023-12-20T14:07:07;100666.91;;;7.75;72.24
84169;BME280;74295;50.146;8.794;2023-12-20T14:17:12;100655.34;;;7.68;73.47
84169;BME280;74295;50.146;8.794;2023-12-20T14:27:16;100653.91;;;7.66;73.50
84169;BME280;74295;50.146;8.794;2023-12-20T14:37:22;100640.34;;;7.72;73.16
84169;BME280;74295;50.146;8.794;2023-12-20T14:47:26;100636.50;;;7.62;73.64
84169;BME280;74295;50.146;8.794;2023-12-20T14:57:29;100639.88;;;7.57;74.43
84169;BME280;74295;50.146;8.794;2023-12-20T15:07:33;100634.56;;;7.44;74.41
84169;BME280;74295;50.146;8.794;2023-12-20T15:17:36;100631.22;;;7.49;73.85
84169;BME280;74295;50.146;8.794;2023-12-20T15:27:40;100629.81;;;7.40;74.19
84169;BME280;74295;50.146;8.794;2023-12-20T15:37:42;100626.75;;;7.36;74.70
84169;BME280;74295;50.146;8.794;2023-12-20T15:47:47;100618.03;;;7.34;74.75
84169;BME280;74295;50.146;8.794;2023-12-20T15:57:51;100614.56;;;7.27;75.28
84169;BME280;74295;50.146;8.794;2023-12-20T16:07:57;100634.09;;;7.23;75.27
84169;BME280;74295;50.146;8.794;2023-12-20T16:18:00;100626.56;;;7.31;75.70
84169;BME280;74295;50.146;8.794;2023-12-20T16:28:05;100637.81;;;7.22;75.94
84169;BME280;74295;50.146;8.794;2023-12-20T16:38:07;100648.00;;;7.20;76.88
84169;BME280;74295;50.146;8.794;2023-12-20T16:48:11;100654.44;;;7.19;76.56
84169;BME280;74295;50.146;8.794;2023-12-20T16:58:14;100634.50;;;7.26;76.27
84169;BME280;74295;50.146;8.794;2023-12-20T17:08:18;100611.56;;;7.11;76.78
84169;BME280;74295;50.146;8.794;2023-12-20T17:18:21;100624.63;;;7.07;77.34
84169;BME280;74295;50.146;8.794;2023-12-20T17:28:25;100628.97;;;7.15;76.98
84169;BME280;74295;50.146;8.794;2023-12-20T17:38:27;100637.25;;;7.13;77.86
84169;BME280;74295;50.146;8.794;2023-12-20T17:48:32;100646.19;;;7.07;76.88
84169;BME280;74295;50.146;8.794;2023-12-20T17:58:35;100614.06;;;7.06;78.75
84169;BME280;74295;50.146;8.794;2023-12-20T18:08:39;100610.81;;;6.97;78.22
84169;BME280;74295;50.146;8.794;2023-12-20T18:18:41;100602.13;;;6.95;79.38
84169;BME280;74295;50.146;8.794;2023-12-20T18:28:46;100598.59;;;6.95;79.34
84169;BME280;74295;50.146;8.794;2023-12-20T18:38:48;100592.16;;;6.96;81.38
84169;BME280;74295;50.146;8.794;2023-12-20T18:48:53;100599.16;;;7.03;81.28
84169;BME280;74295;50.146;8.794;2023-12-20T18:58:56;100585.00;;;7.14;81.13
84169;BME280;74295;50.146;8.794;2023-12-20T19:09:00;100568.53;;;6.98;82.14
84169;BME280;74295;50.146;8.794;2023-12-20T19:19:02;100559.94;;;7.07;82.00
84169;BME280;74295;50.146;8.794;2023-12-20T19:29:06;100522.78;;;7.16;81.32
84169;BME280;74295;50.146;8.794;2023-12-20T19:39:09;100530.19;;;7.20;82.21
84169;BME280;74295;50.146;8.794;2023-12-20T19:49:13;100522.44;;;7.30;81.64
84169;BME280;74295;50.146;8.794;2023-12-20T19:59:16;100519.41;;;7.20;83.70
84169;BME280;74295;50.146;8.794;2023-12-20T20:09:20;100495.91;;;7.03;84.42
84169;BME280;74295;50.146;8.794;2023-12-20T20:19:22;100500.16;;;6.92;85.48
84169;BME280;74295;50.146;8.794;2023-12-20T20:29:28;100479.03;;;6.89;85.73
84169;BME280;74295;50.146;8.794;2023-12-20T20:39:30;100478.03;;;6.84;87.43
84169;BME280;74295;50.146;8.794;2023-12-20T20:49:34;100482.31;;;6.91;85.54
84169;BME280;74295;50.146;8.794;2023-12-20T20:59:37;100456.59;;;6.95;85.41
84169;BME280;74295;50.146;8.794;2023-12-20T21:09:44;100439.16;;;6.98;85.61
84169;BME280;74295;50.146;8.794;2023-12-20T21:19:49;100429.38;;;7.03;84.42
84169;BME280;74295;50.146;8.794;2023-12-20T21:29:57;100401.53;;;7.09;84.71
84169;BME280;74295;50.146;8.794;2023-12-20T21:40:00;100393.69;;;7.08;nan
84169;BME280;74295;50.146;8.794;2023-12-20T21:50:08;100382.22;;;7.12;84.34
84169;BME280;74295;50.146;8.794;2023-12-20T22:00:12;100350.63;;;7.19;84.88
84169;BME280;74295;50.146;8.794;2023-12-20T22:10:16;100344.84;;;7.16;84.92
84169;BME280;74295;50.146;8.794;2023-12-20T22:20:25;100326.88;;;7.10;86.34
84169;BME280;74295;50.146;8.794;2023-12-20T22:30:32;100332.47;;;6.90;88.31
84169;BME280;74295;50.146;8.794;2023-12-20T22:40:35;100321.88;;;6.95;88.26
84169;BME280;74295;50.146;8.794;2023-12-20T22:50:40;100317.91;;;6.98;87.67
84169;BME280;74295;50.146;8.794;2023-12-20T23:00:42;100306.69;;;7.01;87.85
84169;BME280;74295;50.146;8.794;2023-12-20T23:10:46;100282.78;;;7.04;87.59
84169;BME280;74295;50.146;8.794;2023-12-20T23:20:49;100261.66;;;7.01;88.71
84169;BME280;74295;50.146;8.794;2023-12-20T23:30:53;100267.88;;;7.02;88.73
84169;BME280;74295;50.146;8.794;2023-12-20T23:40:56;100281.44;;;6.95;89.60
84169;BME280;74295;50.146;8.794;2023-12-20T23:51:00;100249.69;;;6.97;89.08
